Time;durP1;ratioP1;P1;durP2;ratioP2;P2;SDS_P1;SDS_P2;PMS_P1;PMS_P2;Temp;Humidity;BMP_temperature;BMP_pressure;BME280_temperature;BME280_humidity;BME280_pressure;Samples;Min_cycle;Max_cycle;Signal;HPM_P1;HPM_P2
2021/05/20 00:00:17;;;;;;;3.45;1.65;;;;;;;7.09;100.00;96296.28;1035646;28;20057;-50
2021/05/20 00:00:48;;;;;;;3.10;1.75;;;;;;;7.10;100.00;96301.41;1031594;28;20265;-48
2021/05/20 00:01:19;;;;;;;3.58;1.73;;;;;;;7.12;100.00;96289.13;1027401;28;20286;-48
2021/05/20 00:01:50;;;;;;;3.17;1.80;;;;;;;7.13;100.00;96295.19;1031503;28;20272;-49
2021/05/20 00:02:21;;;;;;;4.05;1.73;;;;;;;7.10;100.00;96304.00;1023582;28;20381;-49
2021/05/20 00:02:52;;;;;;;3.15;1.70;;;;;;;7.05;100.00;96300.78;1027455;28;20265;-50
2021/05/20 00:03:23;;;;;;;3.25;2.03;;;;;;;7.07;100.00;96298.13;1023513;28;20273;-49
2021/05/20 00:03:54;;;;;;;4.00;1.58;;;;;;;7.01;100.00;96299.25;1035541;28;20101;-50
2021/05/20 00:04:25;;;;;;;3.13;1.80;;;;;;;7.04;100.00;96304.34;1027602;28;20282;-48
2021/05/20 00:04:56;;;;;;;2.67;1.60;;;;;;;7.03;100.00;96297.41;1023613;28;20684;-50
2021/05/20 00:05:27;;;;;;;3.22;1.73;;;;;;;7.04;100.00;96303.47;1031397;28;20508;-49
2021/05/20 00:05:58;;;;;;;4.32;1.60;;;;;;;7.05;100.00;96295.59;1027589;28;20022;-48
2021/05/20 00:06:29;;;;;;;4.35;1.90;;;;;;;7.09;100.00;96298.88;1031482;28;20065;-49
2021/05/20 00:07:00;;;;;;;2.90;1.80;;;;;;;7.10;100.00;96303.19;1027665;28;20115;-50
2021/05/20 00:07:32;;;;;;;3.78;1.70;;;;;;;7.11;100.00;96299.63;1027445;28;20282;-49
2021/05/20 00:08:04;;;;;;;5.15;2.17;;;;;;;7.05;100.00;96299.97;1027521;28;20388;-48
2021/05/20 00:08:34;;;;;;;4.82;2.05;;;;;;;7.01;100.00;96292.28;1027588;28;20257;-49
2021/05/20 00:09:06;;;;;;;3.22;1.80;;;;;;;7.03;100.00;96297.41;1027576;28;20337;-48
2021/05/20 00:09:37;;;;;;;3.53;1.92;;;;;;;7.04;100.00;96299.13;1027531;28;20022;-49
2021/05/20 00:10:08;;;;;;;5.63;2.00;;;;;;;7.03;100.00;96297.41;1027591;28;20274;-48
2021/05/20 00:10:39;;;;;;;6.03;1.95;;;;;;;7.03;100.00;96305.25;1023543;28;20019;-49
2021/05/20 00:11:09;;;;;;;3.92;1.95;;;;;;;7.05;100.00;96300.78;1031552;28;20266;-49
2021/05/20 00:11:40;;;;;;;4.55;1.85;;;;;;;7.05;100.00;96310.38;1027431;28;20023;-51
2021/05/20 00:12:12;;;;;;;3.72;1.75;;;;;;;7.08;100.00;96300.66;1031551;28;20023;-48
2021/05/20 00:12:45;;;;;;;4.95;2.20;;;;;;;7.07;100.00;96300.72;1027456;28;20285;-49
2021/05/20 00:13:16;;;;;;;4.00;2.00;;;;;;;7.06;100.00;96307.69;1023556;28;20259;-50
2021/05/20 00:13:47;;;;;;;4.78;1.92;;;;;;;7.08;100.00;96300.66;1035367;28;20264;-50
2021/05/20 00:14:17;;;;;;;3.33;1.80;;;;;;;7.10;100.00;96304.00;1027724;28;20015;-49
2021/05/20 00:14:49;;;;;;;3.47;1.83;;;;;;;7.08;100.00;96305.84;1031568;28;20034;-48
2021/05/20 00:15:20;;;;;;;3.15;1.73;;;;;;;7.04;100.00;96298.25;1023594;28;20030;-49
2021/05/20 00:15:51;;;;;;;4.38;2.13;;;;;;;7.00;100.00;96302.78;1031505;28;20276;-51
2021/05/20 00:16:22;;;;;;;4.57;1.88;;;;;;;7.00;100.00;96297.56;1039648;28;20314;-48
2021/05/20 00:16:55;;;;;;;6.22;2.08;;;;;;;7.02;100.00;96306.19;1027562;28;20023;-52
2021/05/20 00:17:25;;;;;;;4.30;1.83;;;;;;;7.05;100.00;96300.78;1023674;29;20263;-49
2021/05/20 00:17:56;;;;;;;3.78;1.85;;;;;;;7.04;100.00;96300.88;1027469;28;20257;-48
2021/05/20 00:18:27;;;;;;;3.83;1.90;;;;;;;7.05;100.00;96303.41;1023558;29;20401;-49
2021/05/20 00:18:58;;;;;;;3.88;2.10;;;;;;;7.07;100.00;96305.94;1023557;29;20102;-49
2021/05/20 00:19:29;;;;;;;4.47;2.28;;;;;;;7.06;100.00;96301.63;1027473;28;20837;-51
2021/05/20 00:20:00;;;;;;;3.58;2.35;;;;;;;6.99;100.00;96304.53;1031457;28;20022;-48
2021/05/20 00:20:31;;;;;;;3.83;2.22;;;;;;;7.02;100.00;96303.56;1031587;28;20026;-51
2021/05/20 00:21:02;;;;;;;4.40;1.90;;;;;;;7.01;100.00;96301.88;1031524;28;20022;-49
2021/05/20 00:21:33;;;;;;;3.55;2.05;;;;;;;7.04;100.00;96303.47;1031499;28;20256;-50
2021/05/20 00:22:04;;;;;;;3.83;2.10;;;;;;;7.09;100.00;96306.69;1031357;28;20110;-49
2021/05/20 00:22:35;;;;;;;4.97;2.38;;;;;;;7.08;100.00;96300.66;1039612;28;20251;-51
2021/05/20 00:23:06;;;;;;;5.72;1.90;;;;;;;7.06;100.00;96306.84;1031746;28;20126;-49
2021/05/20 00:23:37;;;;;;;4.55;2.45;;;;;;;7.06;100.00;96306.84;1028211;28;20422;-48
2021/05/20 00:24:08;;;;;;;3.38;2.25;;;;;;;7.04;100.00;96304.34;1028297;28;20110;-49
2021/05/20 00:24:39;;;;;;;15.38;2.58;;;;;;;7.05;100.00;96305.16;1032321;28;20261;-50
2021/05/20 00:25:11;;;;;;;4.97;2.00;;;;;;;7.10;100.00;96303.19;1028286;28;20304;-49
2021/05/20 00:25:42;;;;;;;3.72;2.15;;;;;;;7.09;100.00;96302.31;1028361;28;20501;-49
2021/05/20 00:26:13;;;;;;;5.00;2.47;;;;;;;7.10;100.00;96308.38;1032235;28;20348;-48
2021/05/20 00:26:44;;;;;;;4.35;2.38;;;;;;;7.04;100.00;96306.06;1028252;28;20057;-48
2021/05/20 00:27:15;;;;;;;5.80;2.28;;;;;;;7.06;100.00;96305.09;1032342;28;20250;-48
2021/05/20 00:27:46;;;;;;;4.35;2.47;;;;;;;7.06;100.00;96305.09;1036377;28;20639;-50
2021/05/20 00:28:16;;;;;;;5.18;2.47;;;;;;;7.09;100.00;96302.31;1028336;28;20023;-48
2021/05/20 00:28:48;;;;;;;4.90;2.30;;;;;;;7.09;100.00;96304.09;1028347;28;20011;-49
2021/05/20 00:29:19;;;;;;;3.38;2.35;;;;;;;7.10;100.00;96304.00;1028360;28;20405;-48
2021/05/20 00:29:50;;;;;;;4.43;2.50;;;;;;;7.04;100.00;96304.34;1036467;28;20348;-50
2021/05/20 00:30:21;;;;;;;5.35;2.45;;;;;;;7.06;100.00;96309.44;1032724;28;20082;-49
2021/05/20 00:30:52;;;;;;;3.95;2.25;;;;;;;6.99;100.00;96307.16;1036492;28;20017;-49
2021/05/20 00:31:23;;;;;;;3.47;2.38;;;;;;;7.05;100.00;96308.59;1032197;28;20659;-50
2021/05/20 00:31:54;;;;;;;4.55;2.47;;;;;;;7.10;100.00;96303.19;1028323;28;20278;-50
2021/05/20 00:32:24;;;;;;;4.90;2.53;;;;;;;7.08;100.00;96311.06;1032189;28;20028;-50
2021/05/20 00:32:55;;;;;;;7.32;2.55;;;;;;;7.07;100.00;96305.94;1032300;28;20022;-49
2021/05/20 00:33:26;;;;;;;7.47;2.80;;;;;;;6.99;100.00;96311.53;1028256;28;20015;-49
2021/05/20 00:33:57;;;;;;;3.92;2.35;;;;;;;6.81;100.00;96284.63;1028179;28;20029;-48
2021/05/20 00:34:28;;;;;;;4.93;2.65;;;;;;;6.95;100.00;96308.22;1028123;28;20437;-49
2021/05/20 00:34:59;;;;;;;3.90;2.70;;;;;;;7.00;100.00;96310.59;1036424;28;20018;-49
2021/05/20 00:35:30;;;;;;;4.72;3.45;;;;;;;7.01;100.00;96309.69;1028312;28;20058;-49
2021/05/20 00:36:01;;;;;;;3.85;2.65;;;;;;;7.00;100.00;96303.66;1024327;28;20015;-49
2021/05/20 00:36:32;;;;;;;4.28;2.65;;;;;;;7.00;100.00;96305.38;1036223;28;20249;-51
2021/05/20 00:37:03;;;;;;;4.47;2.90;;;;;;;7.02;100.00;96308.78;1024353;28;20254;-49
2021/05/20 00:37:34;;;;;;;3.92;2.53;;;;;;;7.00;100.00;96310.59;1028256;28;20376;-49
2021/05/20 00:38:13;;;;;;;6.00;2.90;;;;;;;6.89;100.00;96300.72;1032321;28;20477;-48
2021/05/20 00:38:44;;;;;;;5.93;3.00;;;;;;;6.94;100.00;96313.50;1028166;28;20258;-50
2021/05/20 00:39:14;;;;;;;4.55;3.20;;;;;;;6.94;100.00;96311.75;1036330;28;20336;-49
2021/05/20 00:39:46;;;;;;;5.97;3.00;;;;;;;6.95;100.00;96307.41;1024336;28;20320;-49
2021/05/20 00:40:17;;;;;;;4.43;2.97;;;;;;;6.94;100.00;96306.53;1024283;29;20023;-49
2021/05/20 00:40:48;;;;;;;4.18;2.60;;;;;;;6.94;100.00;96308.31;1036252;28;20020;-49
2021/05/20 00:41:21;;;;;;;5.30;3.40;;;;;;;6.94;100.00;96303.09;1032172;28;20631;-48
2021/05/20 00:41:52;;;;;;;5.63;2.97;;;;;;;6.94;100.00;96308.31;1028154;28;20250;-50
2021/05/20 00:42:23;;;;;;;6.28;3.08;;;;;;;6.95;100.00;96305.63;1032280;28;20643;-48
2021/05/20 00:42:54;;;;;;;4.63;3.28;;;;;;;6.99;100.00;96314.13;1028185;28;20073;-48
2021/05/20 00:43:26;;;;;;;3.92;2.67;;;;;;;6.96;100.00;96303.84;1024230;28;20016;-49
2021/05/20 00:43:57;;;;;;;3.83;2.80;;;;;;;6.92;100.00;96302.31;1024145;28;20338;-48
2021/05/20 00:44:28;;;;;;;4.85;3.50;;;;;;;6.89;100.00;96310.28;1036311;28;20276;-50
2021/05/20 00:45:01;;;;;;;4.07;3.03;;;;;;;6.90;100.00;96314.59;1032191;28;20105;-48
2021/05/20 00:45:32;;;;;;;5.28;3.00;;;;;;;6.90;100.00;96307.63;1032216;28;20296;-49
2021/05/20 00:46:03;;;;;;;5.47;3.08;;;;;;;6.89;100.00;96305.94;1028318;28;20736;-49
2021/05/20 00:46:34;;;;;;;4.50;3.05;;;;;;;6.90;100.00;96309.38;1024250;29;20416;-51
2021/05/20 00:47:05;;;;;;;4.68;3.00;;;;;;;6.91;100.00;96311.91;1028210;28;20105;-49
2021/05/20 00:47:36;;;;;;;5.00;3.45;;;;;;;6.94;100.00;96309.13;1028392;28;20030;-49
2021/05/20 00:48:07;;;;;;;4.60;3.00;;;;;;;6.94;100.00;96309.13;1032335;28;20105;-49
2021/05/20 00:48:38;;;;;;;4.32;3.10;;;;;;;6.93;100.00;96304.03;1028394;28;20313;-50
2021/05/20 00:49:10;;;;;;;7.00;3.40;;;;;;;7.01;100.00;96310.53;1028169;28;20307;-49
2021/05/20 00:49:41;;;;;;;4.07;2.90;;;;;;;6.96;100.00;96314.28;1032258;28;20118;-49
2021/05/20 00:50:13;;;;;;;5.25;2.97;;;;;;;6.96;100.00;96311.66;1028261;28;20648;-48
2021/05/20 00:50:44;;;;;;;4.63;3.13;;;;;;;6.94;100.00;96305.69;1032198;28;20487;-49
2021/05/20 00:51:14;;;;;;;5.03;3.30;;;;;;;6.99;100.00;96311.53;1028160;28;20257;-49
2021/05/20 00:51:46;;;;;;;4.40;2.80;;;;;;;7.00;100.00;96311.47;1024186;28;20481;-50
2021/05/20 00:52:17;;;;;;;5.68;3.50;;;;;;;6.96;100.00;96309.06;1032232;28;20018;-50
2021/05/20 00:52:49;;;;;;;4.28;2.75;;;;;;;6.95;100.00;96303.03;1028165;28;20695;-48
2021/05/20 00:53:20;;;;;;;4.47;3.30;;;;;;;6.95;100.00;96317.81;1028082;28;20038;-48
2021/05/20 00:53:51;;;;;;;4.30;2.58;;;;;;;6.93;100.00;96307.47;1028060;28;20264;-49
2021/05/20 00:54:22;;;;;;;4.90;3.20;;;;;;;6.91;100.00;96308.47;1035963;28;20360;-50
2021/05/20 00:54:54;;;;;;;5.28;2.95;;;;;;;6.91;100.00;96308.47;1024234;28;20027;-47
2021/05/20 00:55:31;;;;;;;5.93;3.08;;;;;;;6.94;100.00;96306.53;1028184;28;20026;-48
2021/05/20 00:56:03;;;;;;;4.95;3.20;;;;;;;6.95;100.00;96312.59;1028242;28;20353;-50
2021/05/20 00:56:37;;;;;;;5.72;3.05;;;;;;;6.92;100.00;96310.97;1032267;28;20344;-49
2021/05/20 00:57:08;;;;;;;6.93;4.45;;;;;;;6.94;100.00;96313.50;1028210;28;20262;-48
2021/05/20 00:57:39;;;;;;;4.97;2.95;;;;;;;6.95;100.00;96307.41;1028125;28;20258;-49
2021/05/20 00:58:11;;;;;;;4.72;2.97;;;;;;;6.92;100.00;96313.59;1028211;28;20023;-49
2021/05/20 00:58:44;;;;;;;5.13;3.38;;;;;;;6.93;100.00;96312.69;1032267;28;20249;-49
2021/05/20 00:59:15;;;;;;;4.10;2.75;;;;;;;6.92;100.00;96315.34;1032151;28;20312;-51
2021/05/20 00:59:53;;;;;;;4.70;3.55;;;;;;;6.91;100.00;96306.72;1032174;28;20348;-48
2021/05/20 01:00:24;;;;;;;5.75;3.42;;;;;;;6.90;100.00;96312.81;1028126;28;20109;-49
2021/05/20 01:00:56;;;;;;;4.93;3.28;;;;;;;6.85;100.00;96320.03;1032295;28;20241;-49
2021/05/20 01:01:27;;;;;;;4.80;3.38;;;;;;;6.89;100.00;96312.91;1032175;28;20261;-51
2021/05/20 01:01:59;;;;;;;4.00;2.80;;;;;;;6.86;100.00;96313.91;1036190;28;20331;-48
2021/05/20 01:02:30;;;;;;;4.72;3.40;;;;;;;6.82;100.00;96302.78;1032209;28;20101;-49
2021/05/20 01:03:01;;;;;;;6.07;3.40;;;;;;;6.88;100.00;96313.81;1028332;28;20251;-48
2021/05/20 01:03:32;;;;;;;6.03;3.20;;;;;;;6.90;100.00;96314.59;1032056;28;20017;-48
2021/05/20 01:04:04;;;;;;;4.13;3.03;;;;;;;6.87;100.00;96317.34;1032202;28;20268;-48
2021/05/20 01:04:35;;;;;;;4.70;3.33;;;;;;;6.86;100.00;96311.28;1028217;28;20019;-52
2021/05/20 01:05:09;;;;;;;4.38;3.28;;;;;;;6.86;100.00;96318.28;1032155;28;20253;-49
2021/05/20 01:05:39;;;;;;;5.22;3.40;;;;;;;6.85;100.00;96319.19;1032007;28;20559;-49
2021/05/20 01:06:10;;;;;;;4.82;3.10;;;;;;;6.85;100.00;96320.03;1028203;28;20253;-49
2021/05/20 01:06:41;;;;;;;4.68;3.17;;;;;;;6.83;100.00;96311.44;1028079;28;20011;-50
2021/05/20 01:07:13;;;;;;;5.72;3.45;;;;;;;6.81;100.00;96315.88;1036308;28;20010;-49
2021/05/20 01:07:44;;;;;;;4.82;3.08;;;;;;;6.82;100.00;96315.81;1032042;28;20264;-48
2021/05/20 01:08:15;;;;;;;6.53;3.45;;;;;;;6.81;100.00;96319.34;1036291;28;20902;-49
2021/05/20 01:08:46;;;;;;;4.22;3.10;;;;;;;6.84;100.00;96314.91;1028186;28;20262;-49
2021/05/20 01:09:17;;;;;;;4.88;3.05;;;;;;;6.77;100.00;96315.19;1028220;28;20069;-51
2021/05/20 01:09:48;;;;;;;6.13;3.15;;;;;;;6.81;100.00;96318.47;1028045;28;20800;-50
2021/05/20 01:10:20;;;;;;;5.05;3.20;;;;;;;6.81;100.00;96314.16;1024220;29;20259;-50
2021/05/20 01:10:51;;;;;;;6.85;3.80;;;;;;;6.80;100.00;96317.66;1028099;28;20312;-49
2021/05/20 01:11:22;;;;;;;5.15;3.30;;;;;;;6.81;100.00;96313.28;1028171;28;20309;-49
2021/05/20 01:11:53;;;;;;;5.07;3.40;;;;;;;6.84;100.00;96320.13;1028002;28;20250;-49
2021/05/20 01:12:24;;;;;;;4.20;3.33;;;;;;;6.81;100.00;96311.53;1028191;28;20027;-49
2021/05/20 01:12:55;;;;;;;5.20;3.67;;;;;;;6.84;100.00;96317.50;1028073;28;20034;-50
2021/05/20 01:13:26;;;;;;;4.45;2.95;;;;;;;6.83;100.00;96319.25;1028077;28;20413;-49
2021/05/20 01:13:57;;;;;;;5.07;3.55;;;;;;;6.82;100.00;96315.81;1035950;28;20253;-50
2021/05/20 01:14:28;;;;;;;7.40;3.60;;;;;;;6.82;100.00;96312.38;1028091;28;20030;-49
2021/05/20 01:14:59;;;;;;;7.80;3.70;;;;;;;6.76;100.00;96320.50;1036293;28;20298;-49
2021/05/20 01:15:32;;;;;;;4.68;3.60;;;;;;;6.74;100.00;96312.75;1036313;28;20050;-49
2021/05/20 01:16:11;;;;;;;5.63;3.58;;;;;;;6.78;100.00;96316.06;1032077;28;20120;-49
2021/05/20 01:16:42;;;;;;;6.20;3.40;;;;;;;6.77;100.00;96312.59;1029739;28;20293;-49
2021/05/20 01:17:13;;;;;;;5.55;3.22;;;;;;;6.83;100.00;96321.84;1028143;28;20266;-49
2021/05/20 01:17:55;;;;;;;5.00;3.05;;;;;;;6.81;100.00;96318.47;1036228;28;20014;-50
2021/05/20 01:18:26;;;;;;;6.95;3.20;;;;;;;6.78;100.00;96314.28;1028024;28;20027;-50
2021/05/20 01:18:57;;;;;;;5.65;3.20;;;;;;;6.77;100.00;96319.56;1028212;28;20262;-50
2021/05/20 01:19:28;;;;;;;4.53;3.33;;;;;;;6.80;100.00;96317.66;1036277;28;20287;-51
2021/05/20 01:19:59;;;;;;;4.65;3.40;;;;;;;6.79;100.00;96317.72;1032197;28;20033;-48
2021/05/20 01:20:32;;;;;;;8.02;3.33;;;;;;;6.77;100.00;96317.78;1024064;28;20262;-49
2021/05/20 01:21:03;;;;;;;4.80;3.17;;;;;;;6.80;100.00;96316.81;1028201;28;20026;-48
2021/05/20 01:21:34;;;;;;;7.28;3.75;;;;;;;6.76;100.00;96318.72;1028652;28;20688;-50
2021/05/20 01:22:05;;;;;;;5.40;3.70;;;;;;;6.79;100.00;96329.00;1028095;28;20274;-50
2021/05/20 01:22:36;;;;;;;6.28;3.80;;;;;;;6.76;100.00;96323.09;1031968;28;20167;-50
2021/05/20 01:23:10;;;;;;;4.68;3.55;;;;;;;6.77;100.00;96319.56;1032127;28;20062;-49
2021/05/20 01:23:41;;;;;;;4.40;3.20;;;;;;;6.79;100.00;96320.31;1036048;28;20742;-49
2021/05/20 01:24:12;;;;;;;5.35;3.55;;;;;;;6.73;100.00;96313.66;1032178;28;20246;-50
2021/05/20 01:24:43;;;;;;;5.47;3.33;;;;;;;6.72;100.00;96314.59;1024000;28;20753;-48
2021/05/20 01:25:14;;;;;;;4.90;3.30;;;;;;;6.73;100.00;96315.44;1032138;28;20292;-48
2021/05/20 01:25:48;;;;;;;5.70;3.53;;;;;;;6.71;100.00;96312.91;1028058;28;20649;-49
2021/05/20 01:26:19;;;;;;;5.75;3.40;;;;;;;6.73;100.00;96318.03;1028133;28;20617;-50
2021/05/20 01:26:50;;;;;;;5.93;3.90;;;;;;;6.74;100.00;96315.34;1027884;28;20257;-51
2021/05/20 01:27:21;;;;;;;5.85;3.35;;;;;;;6.74;100.00;96320.56;1028029;28;20301;-48
2021/05/20 01:27:52;;;;;;;5.05;3.25;;;;;;;6.72;100.00;96317.19;1024130;28;20055;-48
2021/05/20 01:28:25;;;;;;;5.65;3.55;;;;;;;6.67;100.00;96308.75;1032128;28;20018;-48
2021/05/20 01:28:57;;;;;;;5.10;3.42;;;;;;;6.70;100.00;96319.03;1032058;28;20023;-48
2021/05/20 01:29:28;;;;;;;6.75;4.07;;;;;;;6.71;100.00;96318.09;1032126;28;20269;-49
2021/05/20 01:29:59;;;;;;;5.45;3.55;;;;;;;6.71;100.00;96322.47;1028068;28;20246;-49
2021/05/20 01:30:31;;;;;;;8.00;3.80;;;;;;;6.71;100.00;96314.66;1036188;28;20348;-49
2021/05/20 01:31:04;;;;;;;5.80;3.40;;;;;;;6.67;100.00;96324.38;1036037;28;20778;-49
2021/05/20 01:31:36;;;;;;;6.20;4.00;;;;;;;6.66;100.00;96309.66;1028066;28;20270;-50
2021/05/20 01:32:06;;;;;;;4.80;3.78;;;;;;;6.70;100.00;96319.03;1027976;28;20262;-49
2021/05/20 01:32:37;;;;;;;4.68;3.50;;;;;;;6.72;100.00;96321.53;1032095;28;20022;-49
2021/05/20 01:33:08;;;;;;;4.80;3.25;;;;;;;6.66;100.00;96314.03;1024032;28;20019;-50
2021/05/20 01:33:40;;;;;;;4.20;2.95;;;;;;;6.70;100.00;96321.63;1027862;28;20093;-49
2021/05/20 01:34:11;;;;;;;5.10;3.70;;;;;;;6.66;100.00;96327.88;1035650;28;20311;-49
2021/05/20 01:34:42;;;;;;;5.47;3.70;;;;;;;6.66;100.00;96322.69;1028002;28;20748;-49
2021/05/20 01:35:14;;;;;;;5.38;3.95;;;;;;;6.68;100.00;96323.47;1032024;28;20643;-49
2021/05/20 01:35:46;;;;;;;7.05;3.90;;;;;;;6.68;100.00;96323.47;1032236;28;20620;-48
2021/05/20 01:36:25;;;;;;;6.30;3.90;;;;;;;6.70;100.00;96319.03;1032075;28;20316;-49
2021/05/20 01:36:56;;;;;;;5.10;3.35;;;;;;;6.69;100.00;96322.53;1031935;28;20262;-48
2021/05/20 01:37:27;;;;;;;5.32;3.70;;;;;;;6.69;100.00;96322.53;1028058;28;20610;-49
2021/05/20 01:38:41;;;;;;;5.35;3.85;;;;;;;6.69;100.00;96319.94;1036104;28;20045;-50
2021/05/20 01:39:05;;;;;;;5.88;3.88;;;;;;;6.73;100.00;96318.03;1032023;28;20273;-49
2021/05/20 01:39:37;;;;;;;5.07;3.38;;;;;;;6.69;100.00;96322.53;1032090;28;20258;-49
2021/05/20 01:40:09;;;;;;;5.88;3.42;;;;;;;6.73;100.00;96321.47;1032000;28;20292;-49
2021/05/20 01:40:40;;;;;;;5.30;3.25;;;;;;;6.74;100.00;96323.16;1036173;28;20257;-49
2021/05/20 01:41:12;;;;;;;4.47;3.13;;;;;;;6.72;100.00;96321.53;1032038;28;20285;-50
2021/05/20 01:41:43;;;;;;;8.15;3.70;;;;;;;6.73;100.00;96318.03;1027965;28;20536;-48
2021/05/20 01:42:14;;;;;;;4.68;3.30;;;;;;;6.76;100.00;96316.13;1032109;28;20359;-51
2021/05/20 01:42:46;;;;;;;6.95;3.47;;;;;;;6.74;100.00;96317.97;1024101;28;20551;-48
2021/05/20 01:43:17;;;;;;;6.05;3.42;;;;;;;6.74;100.00;96325.78;1024019;28;20673;-50
2021/05/20 01:43:48;;;;;;;5.88;3.17;;;;;;;6.71;100.00;96325.91;1035871;28;20265;-50
2021/05/20 01:44:20;;;;;;;6.22;3.58;;;;;;;6.71;100.00;96320.69;1032117;28;20304;-51
2021/05/20 01:44:53;;;;;;;5.45;3.38;;;;;;;6.73;100.00;96320.63;1036149;28;20458;-50
2021/05/20 01:45:24;;;;;;;4.72;2.90;;;;;;;6.76;100.00;96325.72;1040092;28;20271;-48
2021/05/20 01:46:27;;;;;;;6.70;3.58;;;;;;;6.76;100.00;96321.34;1023977;29;20381;-49
2021/05/20 01:46:58;;;;;;;4.85;3.20;;;;;;;6.73;100.00;96318.88;1024055;28;20314;-49
2021/05/20 01:47:29;;;;;;;4.88;3.42;;;;;;;6.72;100.00;96324.13;1031977;28;20277;-51
2021/05/20 01:48:00;;;;;;;6.05;3.72;;;;;;;6.72;100.00;96327.63;1028039;28;20247;-50
2021/05/20 01:48:40;;;;;;;5.30;3.13;;;;;;;6.71;100.00;96323.31;1028026;28;20357;-49
2021/05/20 01:49:11;;;;;;;;;;;;;;;6.74;100.00;96320.56;1028427;28;20025;-50
2021/05/20 01:49:50;;;;;;;7.70;3.42;;;;;;;6.67;100.00;96319.19;1031935;28;20000;-48
2021/05/20 01:50:22;;;;;;;5.80;3.38;;;;;;;6.66;100.00;96322.69;1032021;28;20707;-50
2021/05/20 01:50:52;;;;;;;6.15;3.58;;;;;;;6.67;100.00;96327.00;1027952;28;20318;-49
2021/05/20 01:51:23;;;;;;;4.20;3.20;;;;;;;6.63;100.00;96315.03;1027998;28;20850;-50
2021/05/20 01:51:54;;;;;;;6.18;3.28;;;;;;;6.64;100.00;96323.69;1023939;29;20023;-48
2021/05/20 01:52:26;;;;;;;4.88;3.42;;;;;;;6.64;100.00;96321.91;1027993;28;20767;-49
2021/05/20 01:52:57;;;;;;;5.75;3.22;;;;;;;6.63;100.00;96319.41;1024070;29;20517;-48
2021/05/20 01:53:28;;;;;;;3.83;3.10;;;;;;;6.63;100.00;96319.41;1027954;28;20255;-49
2021/05/20 01:53:59;;;;;;;6.22;3.30;;;;;;;6.66;100.00;96321.84;1027819;28;20030;-48
2021/05/20 01:54:30;;;;;;;5.60;3.15;;;;;;;6.64;100.00;96321.91;1023715;29;20686;-48
2021/05/20 01:55:00;;;;;;;4.00;2.90;;;;;;;6.65;100.00;96318.41;1036033;28;20068;-50
2021/05/20 01:55:31;;;;;;;6.00;3.50;;;;;;;6.63;100.00;96320.25;1032012;28;20030;-50
2021/05/20 01:56:03;;;;;;;4.82;2.67;;;;;;;6.65;100.00;96318.41;1027960;28;20049;-49
2021/05/20 01:56:36;;;;;;;4.85;2.95;;;;;;;6.64;100.00;96315.88;1036041;28;20022;-49
2021/05/20 01:57:07;;;;;;;5.63;3.35;;;;;;;6.66;100.00;96317.47;1031948;28;20266;-49
2021/05/20 01:57:38;;;;;;;5.63;2.70;;;;;;;6.66;100.00;96319.25;1036017;28;20332;-49
2021/05/20 01:58:08;;;;;;;5.15;3.00;;;;;;;6.67;100.00;96319.19;1031992;28;20025;-48
2021/05/20 01:58:39;;;;;;;4.63;3.13;;;;;;;6.61;100.00;96322.91;1027989;28;20019;-50
2021/05/20 01:59:10;;;;;;;4.78;3.25;;;;;;;6.59;100.00;96319.56;1031939;28;20018;-49
2021/05/20 01:59:42;;;;;;;4.82;3.00;;;;;;;6.61;100.00;96322.91;1027884;28;20632;-51
2021/05/20 02:00:14;;;;;;;4.25;2.78;;;;;;;6.61;100.00;96324.69;1031913;28;20257;-50
2021/05/20 02:00:45;;;;;;;7.20;3.63;;;;;;;6.60;100.00;96316.00;1031871;28;20332;-49
2021/05/20 02:01:16;;;;;;;4.90;3.00;;;;;;;6.64;100.00;96321.09;1031879;28;20266;-50
2021/05/20 02:01:47;;;;;;;5.93;2.95;;;;;;;6.58;100.00;96317.84;1027821;28;20031;-49
2021/05/20 02:02:18;;;;;;;6.05;3.53;;;;;;;6.59;100.00;96321.31;1035944;28;20021;-50
2021/05/20 02:02:49;;;;;;;3.90;2.60;;;;;;;6.60;100.00;96320.38;1028003;28;20030;-48
2021/05/20 02:03:20;;;;;;;5.35;3.33;;;;;;;6.61;100.00;96317.72;1035957;28;20292;-50
2021/05/20 02:03:51;;;;;;;4.53;2.83;;;;;;;6.57;100.00;96321.38;1031754;28;20253;-50
2021/05/20 02:04:22;;;;;;;4.32;2.90;;;;;;;6.56;100.00;96324.06;1035942;28;20256;-51
2021/05/20 02:04:53;;;;;;;5.38;3.08;;;;;;;6.56;100.00;96321.47;1036047;28;20021;-49
2021/05/20 02:05:24;;;;;;;4.63;3.53;;;;;;;6.55;100.00;96323.22;1040121;28;20025;-49
2021/05/20 02:06:03;;;;;;;6.05;3.10;;;;;;;6.44;100.00;96302.06;1031885;28;20286;-50
2021/05/20 02:06:34;;;;;;;4.10;2.90;;;;;;;6.49;100.00;96320.91;1028061;28;20037;-50
2021/05/20 02:07:05;;;;;;;4.72;3.50;;;;;;;6.53;100.00;96322.47;1027944;28;20387;-48
2021/05/20 02:07:36;;;;;;;4.32;2.83;;;;;;;6.52;100.00;96318.16;1027979;28;20022;-49
2021/05/20 02:08:08;;;;;;;4.32;2.65;;;;;;;6.54;100.00;96321.53;1035945;28;20271;-49
2021/05/20 02:08:39;;;;;;;4.72;3.10;;;;;;;6.51;100.00;96316.47;1027931;28;20262;-48
2021/05/20 02:09:10;;;;;;;4.35;3.05;;;;;;;6.54;100.00;96324.13;1027940;28;20274;-49
2021/05/20 02:09:41;;;;;;;4.00;2.58;;;;;;;6.52;100.00;96312.94;1031960;28;20254;-50
2021/05/20 02:10:12;;;;;;;4.28;2.58;;;;;;;6.54;100.00;96320.69;1027824;28;20027;-48
2021/05/20 02:10:43;;;;;;;4.32;2.88;;;;;;;6.50;100.00;96321.75;1027749;28;20485;-49
2021/05/20 02:11:15;;;;;;;5.78;2.90;;;;;;;6.50;100.00;96320.00;1031949;28;20261;-49
2021/05/20 02:11:45;;;;;;;4.13;2.80;;;;;;;6.51;100.00;96320.81;1023898;28;20263;-48
2021/05/20 02:12:16;;;;;;;5.03;2.80;;;;;;;6.53;100.00;96319.00;1031819;28;20029;-50
2021/05/20 02:12:47;;;;;;;5.15;2.88;;;;;;;6.53;100.00;96326.81;1035968;28;20030;-48
2021/05/20 02:13:19;;;;;;;5.15;2.55;;;;;;;6.50;100.00;96316.56;1027885;28;20269;-50
2021/05/20 02:13:50;;;;;;;6.00;2.53;;;;;;;6.52;100.00;96320.75;1031747;28;20026;-50
2021/05/20 02:14:21;;;;;;;5.82;2.78;;;;;;;6.52;100.00;96323.38;1027849;28;20266;-49
2021/05/20 02:14:52;;;;;;;6.47;3.65;;;;;;;6.54;100.00;96318.91;1027944;28;20158;-50
2021/05/20 02:15:23;;;;;;;5.90;3.03;;;;;;;6.56;100.00;96321.47;1031946;28;20060;-49
2021/05/20 02:15:54;;;;;;;4.93;2.50;;;;;;;6.56;100.00;96324.91;1027991;28;20398;-48
2021/05/20 02:16:25;;;;;;;4.18;2.75;;;;;;;6.52;100.00;96327.72;1031795;28;20025;-49
2021/05/20 02:16:56;;;;;;;6.03;2.50;;;;;;;6.52;100.00;96322.53;1044198;28;20325;-49
2021/05/20 02:17:27;;;;;;;4.47;2.60;;;;;;;6.53;100.00;96324.19;1035919;28;20658;-49
2021/05/20 02:17:59;;;;;;;4.63;2.55;;;;;;;6.54;100.00;96321.53;1032006;28;20747;-50
2021/05/20 02:18:30;;;;;;;4.93;3.15;;;;;;;6.53;100.00;96316.38;1031741;28;20791;-48
2021/05/20 02:19:01;;;;;;;4.57;3.00;;;;;;;6.54;100.00;96318.91;1027887;28;20262;-49
2021/05/20 02:19:32;;;;;;;5.22;3.17;;;;;;;6.54;100.00;96318.09;1027900;28;20345;-49
2021/05/20 02:20:06;;;;;;;4.05;2.47;;;;;;;6.56;100.00;96319.69;1023967;29;20107;-49
2021/05/20 02:20:38;;;;;;;4.03;2.50;;;;;;;6.54;100.00;96318.91;1023728;29;20347;-50
2021/05/20 02:21:09;;;;;;;6.07;2.50;;;;;;;6.55;100.00;96323.22;1027848;28;20262;-49
2021/05/20 02:21:40;;;;;;;5.15;2.60;;;;;;;6.59;100.00;96323.91;1031995;28;20283;-50
2021/05/20 02:22:11;;;;;;;4.97;2.80;;;;;;;6.61;100.00;96324.69;1027806;28;20679;-49
2021/05/20 02:22:42;;;;;;;4.80;2.45;;;;;;;6.55;100.00;96324.97;1031805;28;20106;-49
2021/05/20 02:23:13;;;;;;;4.65;2.63;;;;;;;6.56;100.00;96321.47;1027838;28;20507;-49
2021/05/20 02:23:44;;;;;;;7.65;2.60;;;;;;;6.63;100.00;96324.63;1023700;29;20267;-48
2021/05/20 02:24:15;;;;;;;5.68;2.70;;;;;;;6.61;100.00;96328.13;1035996;28;20249;-50
2021/05/20 02:24:46;;;;;;;4.05;2.42;;;;;;;6.63;100.00;96324.63;1031871;28;20070;-49
2021/05/20 02:25:17;;;;;;;4.13;2.33;;;;;;;6.64;100.00;96319.31;1027810;28;20787;-50
2021/05/20 02:25:49;;;;;;;3.85;2.55;;;;;;;6.55;100.00;96304.13;1031885;28;20101;-49
2021/05/20 02:26:19;;;;;;;4.18;2.35;;;;;;;6.61;100.00;96320.31;1023782;29;20027;-50
2021/05/20 02:26:50;;;;;;;6.78;2.30;;;;;;;6.60;100.00;96325.59;1027844;28;20337;-49
2021/05/20 02:27:21;;;;;;;3.72;2.25;;;;;;;6.64;100.00;96321.09;1027776;28;20077;-49
2021/05/20 02:27:53;;;;;;;3.70;2.50;;;;;;;6.60;100.00;96321.22;1027858;28;20823;-49
2021/05/20 02:28:24;;;;;;;3.75;2.10;;;;;;;6.64;100.00;96319.31;1027812;28;20069;-48
2021/05/20 02:28:55;;;;;;;3.42;2.00;;;;;;;6.67;100.00;96323.53;1027749;28;20262;-50
2021/05/20 02:29:26;;;;;;;5.35;2.80;;;;;;;6.69;100.00;96325.16;1027885;28;20030;-49